createdAt,value
2017-11-23T00:00:34.133Z,98810.39
2017-11-23T00:03:35.633Z,98798.30
2017-11-23T00:06:37.074Z,98801.20
2017-11-23T00:09:38.566Z,98804.98
2017-11-23T00:12:40.013Z,98806.73
2017-11-23T00:15:41.464Z,98804.73
2017-11-23T00:18:42.888Z,98807.56
2017-11-23T00:21:44.381Z,98792.55
2017-11-23T00:24:45.794Z,98789.87
2017-11-23T00:27:47.245Z,98794.41
2017-11-23T00:30:48.740Z,98791.63
2017-11-23T00:33:50.164Z,98788.20
2017-11-23T00:36:51.656Z,98796.97
2017-11-23T00:39:53.136Z,98781.59
2017-11-23T00:42:55.790Z,98784.80
2017-11-23T00:45:57.217Z,98796.63
2017-11-23T00:48:58.785Z,98798.98
2017-11-23T00:52:00.232Z,98794.05
2017-11-23T00:55:01.710Z,98802.39
2017-11-23T00:58:03.235Z,98790.78
2017-11-23T01:01:04.692Z,98788.31
2017-11-23T01:04:06.157Z,98793.26
2017-11-23T01:07:07.599Z,98793.12
2017-11-23T01:10:09.056Z,98782.29
2017-11-23T01:13:11.212Z,98784.09
2017-11-23T01:16:12.701Z,98790.34
2017-11-23T01:19:14.076Z,98799.31
2017-11-23T01:22:23.338Z,98795.22
2017-11-23T01:25:24.809Z,98794.95
2017-11-23T01:28:26.264Z,98802.21
2017-11-23T01:31:28.448Z,98800.45
2017-11-23T01:34:29.960Z,98785.57
2017-11-23T01:37:31.489Z,98805.63
2017-11-23T01:40:33.769Z,98793.81
2017-11-23T01:43:35.560Z,98779.22
2017-11-23T01:46:37.001Z,98779.41
2017-11-23T01:49:38.464Z,98780.01
2017-11-23T01:52:39.986Z,98758.19
2017-11-23T01:55:42.255Z,98752.16
2017-11-23T01:58:44.516Z,98758.99
2017-11-23T02:01:46.798Z,98754.58
2017-11-23T02:04:48.369Z,98744.64
2017-11-23T02:07:49.797Z,98743.01
2017-11-23T02:10:52.061Z,98739.00
2017-11-23T02:13:53.497Z,98740.47
2017-11-23T02:16:54.989Z,98740.12
2017-11-23T02:19:56.520Z,98736.84
2017-11-23T02:22:58.834Z,98725.51
2017-11-23T02:26:00.393Z,98718.08
2017-11-23T02:29:01.904Z,98713.61
2017-11-23T02:32:04.215Z,98697.92
2017-11-23T02:35:05.789Z,98710.13
2017-11-23T02:38:08.225Z,98682.42
2017-11-23T02:41:11.678Z,98692.65
2017-11-23T02:44:13.195Z,98696.86
2017-11-23T02:47:14.645Z,98683.00
2017-11-23T02:50:16.098Z,98667.00
2017-11-23T02:53:17.650Z,98657.86
2017-11-23T02:56:19.131Z,98644.84
2017-11-23T02:59:20.592Z,98658.69
2017-11-23T03:02:22.709Z,98647.17
2017-11-23T03:05:24.897Z,98641.91
2017-11-23T03:08:28.030Z,98651.65
2017-11-23T03:11:29.520Z,98662.41
2017-11-23T03:14:31.764Z,98659.72
2017-11-23T03:17:33.232Z,98677.27
2017-11-23T03:20:36.229Z,98684.69
2017-11-23T03:23:38.512Z,98666.58
2017-11-23T03:26:40.793Z,98666.00
2017-11-23T03:29:42.274Z,98656.72
2017-11-23T03:32:43.740Z,98654.42
2017-11-23T03:35:45.187Z,98661.45
2017-11-23T03:38:46.681Z,98648.07
2017-11-23T03:41:48.850Z,98647.85
2017-11-23T03:44:51.153Z,98622.16
2017-11-23T03:47:52.652Z,98633.70
2017-11-23T03:50:54.133Z,98640.43
2017-11-23T03:53:56.401Z,98633.41
2017-11-23T03:56:58.575Z,98634.88
2017-11-23T04:00:00.857Z,98639.88
2017-11-23T04:03:03.115Z,98632.30
2017-11-23T04:06:05.361Z,98625.91
2017-11-23T04:09:06.864Z,98615.23
2017-11-23T04:12:08.376Z,98637.89
2017-11-23T04:15:09.865Z,98631.45
2017-11-23T04:18:12.089Z,98634.52
2017-11-23T04:21:13.557Z,98649.52
2017-11-23T04:24:15.037Z,98631.73
2017-11-23T04:27:17.310Z,98630.25
2017-11-23T04:30:18.804Z,98629.89
2017-11-23T04:33:20.316Z,98630.13
2017-11-23T04:36:22.597Z,98627.58
2017-11-23T04:39:24.096Z,98626.59
2017-11-23T04:42:25.700Z,98637.03
2017-11-23T04:45:27.185Z,98639.36
2017-11-23T04:48:28.708Z,98649.39
2017-11-23T04:51:30.117Z,98648.00
2017-11-23T04:54:31.578Z,98622.47
2017-11-23T04:57:33.053Z,98612.19
2017-11-23T05:00:35.281Z,98619.73
2017-11-23T05:03:36.717Z,98639.02
2017-11-23T05:06:38.224Z,98608.88
2017-11-23T05:09:40.418Z,98618.95
2017-11-23T05:12:41.885Z,98626.31
2017-11-23T05:15:43.426Z,98605.06
2017-11-23T05:18:44.925Z,98625.05
2017-11-23T05:21:46.393Z,98582.90
2017-11-23T05:24:47.824Z,98603.03
2017-11-23T05:27:49.293Z,98577.32
2017-11-23T05:30:50.713Z,98611.28
2017-11-23T05:33:52.217Z,98599.30
2017-11-23T05:36:53.697Z,98598.72
2017-11-23T05:39:55.133Z,98611.32
2017-11-23T05:42:56.588Z,98614.02
2017-11-23T05:45:58.756Z,98597.08
2017-11-23T05:49:00.240Z,98593.55
2017-11-23T05:52:01.753Z,98587.09
2017-11-23T05:55:03.913Z,98588.50
2017-11-23T05:58:06.082Z,98612.41
2017-11-23T06:01:07.519Z,98615.23
2017-11-23T06:04:08.946Z,98600.70
2017-11-23T06:07:10.437Z,98577.80
2017-11-23T06:10:11.831Z,98574.96
2017-11-23T06:13:13.329Z,98573.72
2017-11-23T06:16:14.776Z,98572.23
2017-11-23T06:19:16.190Z,98581.66
2017-11-23T06:22:17.645Z,98608.20
2017-11-23T06:25:19.099Z,98599.77
2017-11-23T06:28:20.513Z,98572.55
2017-11-23T06:31:21.959Z,98568.63
2017-11-23T06:34:23.476Z,98573.87
2017-11-23T06:37:24.898Z,98561.59
2017-11-23T06:40:26.314Z,98575.00
2017-11-23T06:43:27.698Z,98574.06
2017-11-23T06:46:29.055Z,98587.84
2017-11-23T06:49:30.385Z,98573.75
2017-11-23T06:52:32.457Z,98595.08
2017-11-23T06:55:34.606Z,98580.91
2017-11-23T06:58:36.677Z,98588.52
2017-11-23T07:01:38.861Z,98591.00
2017-11-23T07:04:40.932Z,98614.52
2017-11-23T07:07:43.027Z,98591.06
2017-11-23T07:10:44.456Z,98615.27
2017-11-23T07:13:45.809Z,98604.28
2017-11-23T07:16:47.207Z,98592.74
2017-11-23T07:19:48.583Z,98607.48
2017-11-23T07:22:49.984Z,98601.59
2017-11-23T07:25:51.321Z,98585.92
2017-11-23T07:28:52.689Z,98618.80
2017-11-23T07:31:54.036Z,98611.91
2017-11-23T07:34:55.401Z,98619.17
2017-11-23T07:37:56.772Z,98632.29
2017-11-23T07:40:58.172Z,98617.91
2017-11-23T07:43:59.500Z,98618.02
2017-11-23T07:47:01.616Z,98621.46
2017-11-23T07:50:03.150Z,98615.48
2017-11-23T07:53:04.621Z,98630.98
2017-11-23T07:56:09.409Z,98617.01
2017-11-23T07:59:11.497Z,98630.88
2017-11-23T08:02:12.861Z,98618.27
2017-11-23T08:05:14.153Z,98639.92
2017-11-23T08:08:15.489Z,98630.20
2017-11-23T08:11:16.849Z,98634.13
2017-11-23T08:14:18.196Z,98624.77
2017-11-23T08:17:19.675Z,98598.46
2017-11-23T08:20:21.807Z,98612.67
2017-11-23T08:23:23.237Z,98615.14
2017-11-23T08:26:24.637Z,98626.08
2017-11-23T08:29:26.689Z,98634.80
2017-11-23T08:32:28.078Z,98640.06
2017-11-23T08:35:29.448Z,98631.85
2017-11-23T08:38:30.810Z,98633.38
2017-11-23T08:44:40.236Z,98640.50
2017-11-23T08:47:41.573Z,98593.67
2017-11-23T08:50:43.682Z,98641.20
2017-11-23T08:53:44.971Z,98651.31
2017-11-23T08:56:46.344Z,98641.81
2017-11-23T08:59:48.362Z,98626.69
2017-11-23T09:02:49.711Z,98627.09
2017-11-23T09:05:51.049Z,98649.23
2017-11-23T09:08:52.419Z,98651.20
2017-11-23T09:11:53.719Z,98640.86
2017-11-23T09:14:57.915Z,98659.68
2017-11-23T09:18:00.005Z,98662.03
2017-11-23T09:21:01.393Z,98668.82
2017-11-23T09:24:02.767Z,98661.66
2017-11-23T09:27:04.145Z,98656.14
2017-11-23T09:30:06.250Z,98666.66
2017-11-23T09:33:07.665Z,98660.59
2017-11-23T09:36:09.869Z,98648.02
2017-11-23T09:39:11.236Z,98674.72
2017-11-23T09:42:12.613Z,98648.75
2017-11-23T09:45:13.968Z,98682.23
2017-11-23T09:48:15.399Z,98669.43
2017-11-23T09:51:16.798Z,98664.78
2017-11-23T09:54:18.925Z,98683.56
2017-11-23T09:57:20.330Z,98677.76
2017-11-23T10:00:21.658Z,98667.65
2017-11-23T10:03:23.681Z,98687.70
2017-11-23T10:06:24.985Z,98711.41
2017-11-23T10:09:26.333Z,98682.25
2017-11-23T10:12:28.425Z,98687.53
2017-11-23T10:15:29.804Z,98701.25
2017-11-23T10:18:31.105Z,98698.53
2017-11-23T10:21:32.517Z,98698.00
2017-11-23T10:24:33.853Z,98696.16
2017-11-23T10:27:35.953Z,98703.41
2017-11-23T10:30:38.108Z,98686.36
2017-11-23T10:33:39.475Z,98707.72
2017-11-23T10:36:41.596Z,98713.63
2017-11-23T10:39:42.935Z,98716.55
2017-11-23T10:42:44.255Z,98728.33
2017-11-23T10:45:46.432Z,98719.56
2017-11-23T10:48:47.785Z,98722.23
2017-11-23T10:51:49.128Z,98720.47
2017-11-23T10:54:50.460Z,98736.34
2017-11-23T10:57:52.545Z,98729.95
2017-11-23T11:00:53.897Z,98728.66
2017-11-23T11:03:55.305Z,98721.20
2017-11-23T11:06:56.673Z,98721.75
2017-11-23T11:09:58.752Z,98735.37
2017-11-23T11:13:00.830Z,98726.81
2017-11-23T11:16:02.194Z,98744.37
2017-11-23T11:19:03.563Z,98750.98
2017-11-23T11:22:04.957Z,98762.25
2017-11-23T11:25:06.335Z,98760.11
2017-11-23T11:28:07.724Z,98759.53
2017-11-23T11:31:09.111Z,98763.17
2017-11-23T11:34:11.343Z,98770.06
2017-11-23T11:37:12.733Z,98778.38
2017-11-23T11:40:14.190Z,98785.09
2017-11-23T11:43:16.309Z,98777.75
2017-11-23T11:46:17.832Z,98775.33
2017-11-23T11:49:19.240Z,98784.98
2017-11-23T11:52:20.716Z,98786.84
2017-11-23T11:55:22.266Z,98801.81
2017-11-23T11:58:24.381Z,98805.81
2017-11-23T12:01:25.789Z,98811.91
2017-11-23T12:04:27.916Z,98808.30
2017-11-23T12:07:29.286Z,98810.77
2017-11-23T12:10:30.671Z,98819.48
2017-11-23T12:13:32.833Z,98811.97
2017-11-23T12:16:53.379Z,98808.33
2017-11-23T12:20:08.283Z,98808.75
2017-11-23T12:23:28.059Z,98820.20
2017-11-23T12:26:29.446Z,98841.23
2017-11-23T12:33:22.106Z,98851.73
2017-11-23T12:36:24.325Z,98851.99
2017-11-23T12:39:25.802Z,98846.55
2017-11-23T12:42:27.285Z,98846.20
2017-11-23T12:45:29.757Z,98851.92
2017-11-23T12:48:31.944Z,98864.98
2017-11-23T12:51:34.098Z,98856.75
2017-11-23T12:54:35.679Z,98838.61
2017-11-23T12:57:39.718Z,98862.38
2017-11-23T13:00:41.081Z,98855.52
2017-11-23T13:03:42.469Z,98851.05
2017-11-23T13:06:44.555Z,98854.22
2017-11-23T13:09:45.852Z,98855.80
2017-11-23T13:12:47.189Z,98863.92
2017-11-23T13:15:48.695Z,98860.27
2017-11-23T13:18:50.101Z,98866.55
2017-11-23T13:21:51.513Z,98870.06
2017-11-23T13:24:52.930Z,98871.94
2017-11-23T13:27:54.990Z,98878.06
2017-11-23T13:30:56.370Z,98884.69
2017-11-23T13:33:58.379Z,98877.50
2017-11-23T13:36:59.878Z,98884.51
2017-11-23T13:40:02.005Z,98897.41
2017-11-23T13:43:03.374Z,98890.50
2017-11-23T13:46:04.814Z,98893.03
2017-11-23T13:49:06.263Z,98903.20
2017-11-23T13:52:07.717Z,98901.56
2017-11-23T13:55:09.149Z,98903.21
2017-11-23T13:58:10.556Z,98901.67
2017-11-23T14:01:12.712Z,98878.51
2017-11-23T14:04:14.148Z,98887.33
2017-11-23T14:07:15.489Z,98888.09
2017-11-23T14:10:16.974Z,98875.22
2017-11-23T14:13:18.328Z,98880.64
2017-11-23T14:16:19.714Z,98873.66
2017-11-23T14:19:21.036Z,98878.78
2017-11-23T14:22:23.166Z,98880.42
2017-11-23T14:25:24.528Z,98899.09
2017-11-23T14:28:25.942Z,98886.47
2017-11-23T14:31:27.262Z,98903.83
2017-11-23T14:34:29.321Z,98879.05
2017-11-23T14:37:32.855Z,98894.06
2017-11-23T14:40:34.252Z,98901.84
2017-11-23T14:43:35.666Z,98908.16
2017-11-23T14:46:37.029Z,98905.59
2017-11-23T14:49:38.503Z,98911.61
2017-11-23T14:52:39.914Z,98913.49
2017-11-23T14:55:41.326Z,98925.59
2017-11-23T14:58:43.062Z,98931.98
2017-11-23T15:01:44.924Z,98946.23
2017-11-23T15:04:46.358Z,98947.13
2017-11-23T15:07:47.734Z,98952.94
2017-11-23T15:10:55.991Z,98941.08
2017-11-23T15:13:57.410Z,98950.27
2017-11-23T15:16:59.532Z,98954.45
2017-11-23T15:20:01.037Z,98950.84
2017-11-23T15:23:03.151Z,98947.22
2017-11-23T15:26:04.501Z,98956.55
2017-11-23T15:29:05.990Z,98955.73
2017-11-23T15:32:07.431Z,98949.17
2017-11-23T15:35:08.839Z,98958.34
2017-11-23T15:38:10.188Z,98967.86
2017-11-23T15:41:11.554Z,98971.41
2017-11-23T15:44:12.946Z,98960.05
2017-11-23T15:47:14.341Z,98967.61
2017-11-23T15:50:15.759Z,98980.30
2017-11-23T15:53:17.145Z,98977.84
2017-11-23T15:56:18.584Z,98981.99
2017-11-23T15:59:19.955Z,98994.87
2017-11-23T16:02:21.441Z,98981.55
2017-11-23T16:05:22.841Z,99011.22
2017-11-23T16:08:24.286Z,99010.05
2017-11-23T16:11:26.555Z,99024.02
2017-11-23T16:14:32.637Z,99060.87
2017-11-23T16:17:37.286Z,99106.94
2017-11-23T16:20:40.043Z,99111.12
2017-11-23T16:23:41.534Z,99143.87
2017-11-23T16:26:42.858Z,99145.94
2017-11-23T16:29:44.289Z,99154.96
2017-11-23T16:32:47.305Z,99159.32
2017-11-23T16:35:48.728Z,99173.59
2017-11-23T16:42:29.598Z,99198.72
2017-11-23T16:45:37.109Z,99195.59
2017-11-23T16:52:32.383Z,99219.00
2017-11-23T16:59:19.059Z,99211.64
2017-11-23T17:02:26.378Z,99235.48
2017-11-23T17:09:16.112Z,99243.39
2017-11-23T17:12:24.471Z,99233.75
2017-11-23T17:15:31.958Z,99230.17
2017-11-23T17:18:39.175Z,99235.16
2017-11-23T17:21:40.549Z,99241.70
2017-11-23T17:24:41.920Z,99264.41
2017-11-23T17:27:43.609Z,99272.41
2017-11-23T17:30:45.012Z,99275.00
2017-11-23T17:33:46.644Z,99273.34
2017-11-23T17:36:48.799Z,99285.26
2017-11-23T17:39:50.927Z,99297.70
2017-11-23T17:42:52.208Z,99299.20
2017-11-23T17:45:54.273Z,99302.60
2017-11-23T17:48:55.838Z,99292.80
2017-11-23T17:51:57.263Z,99307.55
2017-11-23T17:55:00.071Z,99302.59
2017-11-23T17:58:02.161Z,99310.00
2017-11-23T18:01:03.505Z,99317.20
2017-11-23T18:04:05.544Z,99314.63
2017-11-23T18:07:06.849Z,99312.51
2017-11-23T18:10:08.139Z,99307.11
2017-11-23T18:13:09.468Z,99314.83
2017-11-23T18:16:10.735Z,99323.41
2017-11-23T18:19:12.093Z,99323.80
2017-11-23T18:22:14.194Z,99315.48
2017-11-23T18:25:15.512Z,99321.57
2017-11-23T18:28:16.862Z,99323.16
2017-11-23T18:31:18.224Z,99320.58
2017-11-23T18:34:21.362Z,99325.63
2017-11-23T18:37:23.019Z,99317.89
2017-11-23T18:40:24.389Z,99318.08
2017-11-23T18:43:25.696Z,99317.42
2017-11-23T18:46:27.399Z,99322.83
2017-11-23T18:49:29.518Z,99324.02
2017-11-23T18:52:30.867Z,99330.72
2017-11-23T18:55:32.332Z,99333.59
2017-11-23T18:58:34.365Z,99350.80
2017-11-23T19:01:36.517Z,99351.80
2017-11-23T19:04:38.510Z,99339.65
2017-11-23T19:07:40.727Z,99343.91
2017-11-23T19:10:42.109Z,99352.91
2017-11-23T19:13:43.428Z,99351.65
2017-11-23T19:16:45.758Z,99356.44
2017-11-23T19:19:47.133Z,99355.47
2017-11-23T19:22:48.430Z,99357.66
2017-11-23T19:25:50.213Z,99365.28
2017-11-23T19:28:51.639Z,99359.52
2017-11-23T19:31:53.102Z,99369.17
2017-11-23T19:34:54.938Z,99375.27
2017-11-23T19:37:56.637Z,99383.87
2017-11-23T19:40:58.714Z,99387.50
2017-11-23T19:44:00.478Z,99385.88
2017-11-23T19:47:01.993Z,99387.80
2017-11-23T19:50:03.395Z,99394.27
2017-11-23T19:53:04.843Z,99393.20
2017-11-23T19:56:06.221Z,99402.45
2017-11-23T19:59:08.871Z,99398.17
2017-11-23T20:02:11.736Z,99409.16
2017-11-23T20:05:13.116Z,99423.27
2017-11-23T20:08:14.494Z,99427.40
2017-11-23T20:11:16.725Z,99428.13
2017-11-23T20:14:18.108Z,99429.80
2017-11-23T20:17:19.706Z,99434.78
2017-11-23T20:20:21.799Z,99443.20
2017-11-23T20:23:23.517Z,99448.58
2017-11-23T20:26:25.357Z,99456.88
2017-11-23T20:29:27.181Z,99487.22
2017-11-23T20:32:28.986Z,99459.16
2017-11-23T20:35:30.389Z,99472.02
2017-11-23T20:38:33.102Z,99468.55
2017-11-23T20:41:34.702Z,99458.86
2017-11-23T20:44:36.841Z,99470.62
2017-11-23T20:47:38.957Z,99474.82
2017-11-23T20:50:48.048Z,99478.33
2017-11-23T20:53:49.364Z,99490.90
2017-11-23T20:56:50.910Z,99493.55
2017-11-23T20:59:52.295Z,99484.94
2017-11-23T21:02:53.731Z,99483.89
2017-11-23T21:05:55.492Z,99498.23
2017-11-23T21:08:57.025Z,99501.26
2017-11-23T21:11:58.673Z,99510.41
2017-11-23T21:15:00.359Z,99516.16
2017-11-23T21:18:01.871Z,99520.64
2017-11-23T21:21:03.993Z,99518.68
2017-11-23T21:24:05.360Z,99516.20
2017-11-23T21:27:06.737Z,99523.44
2017-11-23T21:30:08.938Z,99517.06
2017-11-23T21:33:10.480Z,99532.34
2017-11-23T21:36:11.874Z,99533.59
2017-11-23T21:39:13.282Z,99529.98
2017-11-23T21:42:14.705Z,99518.52
2017-11-23T21:45:16.169Z,99524.30
2017-11-23T21:48:18.281Z,99509.34
2017-11-23T21:51:19.761Z,99505.96
2017-11-23T21:54:21.178Z,99500.22
2017-11-23T21:57:22.584Z,99492.03
2017-11-23T22:00:24.742Z,99488.98
2017-11-23T22:03:26.147Z,99496.05
2017-11-23T22:06:27.559Z,99485.89
2017-11-23T22:09:29.715Z,99488.80
2017-11-23T22:12:31.664Z,99497.78
2017-11-23T22:15:33.326Z,99498.23
2017-11-23T22:18:34.790Z,99504.92
2017-11-23T22:21:36.220Z,99507.72
2017-11-23T22:24:37.677Z,99504.61
2017-11-23T22:27:39.086Z,99504.36
2017-11-23T22:33:49.476Z,99494.92
2017-11-23T22:36:50.921Z,99488.72
2017-11-23T22:39:52.371Z,99478.27
2017-11-23T22:42:53.764Z,99484.48
2017-11-23T22:45:56.127Z,99492.07
2017-11-23T22:48:57.519Z,99490.97
2017-11-23T22:52:00.332Z,99509.95
2017-11-23T22:55:01.961Z,99512.52
2017-11-23T22:58:04.122Z,99512.25
2017-11-23T23:01:05.563Z,99507.75
2017-11-23T23:04:07.030Z,99503.17
2017-11-23T23:07:08.437Z,99498.67
2017-11-23T23:10:09.932Z,99464.38
2017-11-23T23:13:11.384Z,99498.09
2017-11-23T23:16:12.812Z,99500.84
2017-11-23T23:19:14.206Z,99484.33
2017-11-23T23:22:16.302Z,99482.42
2017-11-23T23:25:17.736Z,99484.39
2017-11-23T23:28:19.062Z,99465.42
2017-11-23T23:31:20.490Z,99467.98
2017-11-23T23:34:21.834Z,99475.02
2017-11-23T23:37:23.257Z,99465.02
2017-11-23T23:40:24.778Z,99442.28
2017-11-23T23:43:26.958Z,99461.66
2017-11-23T23:46:29.148Z,99463.14
2017-11-23T23:49:30.537Z,99462.78
2017-11-23T23:52:31.928Z,99465.31
2017-11-23T23:55:33.314Z,99467.17
2017-11-23T23:58:34.736Z,99459.33
